createdAt,value
2022-08-04T00:00:06.769Z,24.54
2022-08-04T00:03:07.081Z,24.74
2022-08-04T00:05:45.815Z,24.75
2022-08-04T00:08:27.136Z,25.28
2022-08-04T00:10:57.040Z,25.58
2022-08-04T00:13:26.344Z,25.66
2022-08-04T00:15:59.526Z,25.51
2022-08-04T00:18:29.411Z,25.85
2022-08-04T00:21:01.173Z,25.59
2022-08-04T00:24:11.948Z,25.62
2022-08-04T00:26:18.950Z,25.83
2022-08-04T00:28:48.880Z,25.63
2022-08-04T00:31:19.292Z,25.64
2022-08-04T00:34:08.371Z,25.90
2022-08-04T00:36:36.809Z,26.08
2022-08-04T00:39:05.063Z,25.95
2022-08-04T00:41:56.817Z,25.38
2022-08-04T00:44:34.450Z,25.26
2022-08-04T00:47:17.458Z,25.05
2022-08-04T00:50:04.308Z,25.36
2022-08-04T00:52:49.336Z,25.66
2022-08-04T00:55:46.814Z,25.50
2022-08-04T00:58:24.730Z,25.68
2022-08-04T01:00:59.212Z,25.78
2022-08-04T01:03:38.679Z,25.77
2022-08-04T01:06:12.886Z,25.88
2022-08-04T01:08:51.325Z,26.04
2022-08-04T01:11:28.671Z,26.10
2022-08-04T01:14:14.275Z,26.17
2022-08-04T01:16:50.145Z,26.30
2022-08-04T01:19:49.499Z,26.26
2022-08-04T01:22:30.997Z,26.53
2022-08-04T01:25:22.677Z,26.15
2022-08-04T01:28:08.363Z,26.14
2022-08-04T01:30:40.749Z,26.52
2022-08-04T01:33:11.121Z,26.70
2022-08-04T01:35:48.235Z,26.33
2022-08-04T01:38:21.591Z,26.88
2022-08-04T01:40:53.383Z,26.82
2022-08-04T01:43:22.348Z,27.34
2022-08-04T01:45:53.224Z,26.94
2022-08-04T01:48:26.096Z,26.92
2022-08-04T01:50:55.083Z,27.47
2022-08-04T01:53:25.474Z,27.27
2022-08-04T01:55:55.780Z,27.49
2022-08-04T01:58:25.298Z,27.42
2022-08-04T02:01:05.093Z,27.15
2022-08-04T02:04:18.763Z,27.35
2022-08-04T02:06:32.887Z,26.92
2022-08-04T02:09:08.320Z,27.40
2022-08-04T02:11:36.663Z,27.63
2022-08-04T02:14:13.768Z,27.06
2022-08-04T02:16:46.244Z,27.08
2022-08-04T02:19:26.677Z,27.29
2022-08-04T02:21:58.791Z,27.37
2022-08-04T02:24:28.761Z,27.51
2022-08-04T02:26:58.168Z,27.94
2022-08-04T02:29:32.385Z,27.30
2022-08-04T02:32:05.708Z,27.46
2022-08-04T02:34:40.537Z,27.67
2022-08-04T02:37:11.889Z,28.02
2022-08-04T02:39:48.678Z,27.80
2022-08-04T02:42:18.238Z,28.39
2022-08-04T02:44:50.955Z,27.94
2022-08-04T02:47:22.731Z,28.40
2022-08-04T02:49:52.724Z,28.68
2022-08-04T02:52:22.125Z,28.35
2022-08-04T02:54:54.849Z,28.23
2022-08-04T02:57:25.204Z,28.09
2022-08-04T03:00:01.984Z,28.11
2022-08-04T03:02:37.766Z,28.33
2022-08-04T03:05:14.568Z,28.18
2022-08-04T03:07:59.623Z,28.09
2022-08-04T03:10:59.595Z,28.09
2022-08-04T03:13:53.630Z,27.90
2022-08-04T03:16:52.035Z,27.69
2022-08-04T03:20:05.908Z,27.52
2022-08-04T03:23:13.026Z,27.76
2022-08-04T03:26:09.502Z,27.81
2022-08-04T03:29:09.591Z,27.78
2022-08-04T03:32:13.297Z,27.69
2022-08-04T03:34:55.493Z,27.72
2022-08-04T03:37:47.964Z,27.94
2022-08-04T03:40:58.373Z,27.34
2022-08-04T03:44:00.282Z,27.67
2022-08-04T03:46:33.288Z,26.69
2022-08-04T03:49:50.337Z,27.05
2022-08-04T03:52:53.398Z,27.10
2022-08-04T03:55:36.815Z,26.88
2022-08-04T03:58:41.426Z,26.65
2022-08-04T04:01:21.813Z,27.05
2022-08-04T04:04:03.318Z,26.53
2022-08-04T04:06:53.776Z,26.07
2022-08-04T04:09:57.745Z,25.70
2022-08-04T04:12:37.125Z,25.17
2022-08-04T04:15:16.052Z,25.24
2022-08-04T04:17:55.665Z,25.25
2022-08-04T04:20:37.870Z,25.02
2022-08-04T04:23:26.108Z,24.65
2022-08-04T04:26:05.880Z,24.66
2022-08-04T04:28:47.225Z,24.33
2022-08-04T04:31:36.128Z,23.80
2022-08-04T04:34:14.253Z,23.66
2022-08-04T04:36:53.740Z,23.41
2022-08-04T04:39:30.652Z,23.61
2022-08-04T04:42:07.554Z,23.33
2022-08-04T04:44:48.395Z,22.85
2022-08-04T04:48:06.986Z,23.06
2022-08-04T04:50:15.993Z,22.17
2022-08-04T04:52:49.376Z,21.85
2022-08-04T04:55:22.874Z,21.38
2022-08-04T04:57:53.853Z,21.45
2022-08-04T05:00:25.570Z,21.20
2022-08-04T05:03:13.871Z,20.25
2022-08-04T05:05:54.883Z,19.88
2022-08-04T05:08:54.307Z,18.68
2022-08-04T05:11:55.024Z,18.33
2022-08-04T05:14:36.961Z,18.77
2022-08-04T05:17:16.725Z,18.28
2022-08-04T05:19:53.191Z,17.83
2022-08-04T05:22:25.621Z,17.58
2022-08-04T05:25:00.841Z,16.62
2022-08-04T05:27:35.940Z,16.06
2022-08-04T05:30:08.822Z,15.46
2022-08-04T05:32:44.619Z,15.45
2022-08-04T05:35:50.432Z,15.51
2022-08-04T05:38:08.031Z,15.98
2022-08-04T05:40:36.597Z,16.10
2022-08-04T05:43:04.682Z,15.93
2022-08-04T05:45:39.192Z,15.78
2022-08-04T05:48:09.356Z,14.38
2022-08-04T05:50:38.373Z,13.76
2022-08-04T05:53:08.899Z,13.14
2022-08-04T05:55:48.849Z,12.98
2022-08-04T05:58:26.608Z,12.16
2022-08-04T06:00:56.037Z,12.25
2022-08-04T06:03:24.280Z,11.56
2022-08-04T06:05:53.130Z,11.47
2022-08-04T06:08:22.645Z,12.14
2022-08-04T06:10:52.487Z,12.58
2022-08-04T06:13:49.610Z,12.79
2022-08-04T06:16:17.828Z,13.17
2022-08-04T06:19:59.107Z,12.80
2022-08-04T06:21:49.447Z,12.80
2022-08-04T06:24:19.859Z,12.24
2022-08-04T06:26:49.488Z,12.08
2022-08-04T06:29:25.020Z,11.90
2022-08-04T06:32:29.489Z,11.93
2022-08-04T06:34:55.139Z,12.30
2022-08-04T06:37:42.013Z,11.61
2022-08-04T06:40:29.845Z,11.50
2022-08-04T06:43:01.642Z,10.86
2022-08-04T06:45:30.235Z,10.40
2022-08-04T06:47:58.566Z,11.04
2022-08-04T06:51:26.758Z,10.76
2022-08-04T06:53:16.267Z,11.09
2022-08-04T06:55:48.371Z,10.77
2022-08-04T06:58:16.926Z,10.57
2022-08-04T07:00:47.321Z,9.07
2022-08-04T07:03:16.921Z,8.58
2022-08-04T07:05:47.718Z,8.95
2022-08-04T07:08:16.292Z,9.20
2022-08-04T07:10:46.234Z,8.87
2022-08-04T07:13:14.743Z,9.21
2022-08-04T07:15:45.789Z,8.95
2022-08-04T07:18:13.972Z,9.03
2022-08-04T07:20:43.330Z,9.64
2022-08-04T07:23:13.831Z,9.49
2022-08-04T07:25:59.450Z,9.08
2022-08-04T07:28:31.954Z,8.74
2022-08-04T07:31:00.545Z,8.25
2022-08-04T07:33:29.152Z,8.55
2022-08-04T07:36:09.679Z,8.57
2022-08-04T07:38:48.129Z,8.72
2022-08-04T07:41:38.506Z,7.98
2022-08-04T07:44:08.557Z,7.78
2022-08-04T07:46:37.156Z,7.71
2022-08-04T07:49:05.789Z,7.17
2022-08-04T07:51:35.523Z,6.16
2022-08-04T07:54:05.435Z,6.10
2022-08-04T07:56:34.566Z,6.10
2022-08-04T07:59:03.456Z,6.93
2022-08-04T08:01:33.610Z,6.60
2022-08-04T08:04:02.337Z,7.59
2022-08-04T08:06:34.905Z,7.70
2022-08-04T08:09:13.070Z,7.71
2022-08-04T08:12:37.904Z,8.03
2022-08-04T08:14:31.746Z,7.60
2022-08-04T08:17:02.666Z,7.74
2022-08-04T08:19:31.606Z,7.67
2022-08-04T08:22:03.079Z,7.60
2022-08-04T08:24:31.928Z,7.32
2022-08-04T08:27:01.234Z,7.17
2022-08-04T08:29:30.185Z,7.16
2022-08-04T08:32:01.664Z,7.31
2022-08-04T08:34:33.370Z,7.21
2022-08-04T08:37:07.686Z,7.21
2022-08-04T08:39:38.788Z,7.54
2022-08-04T08:42:39.570Z,6.81
2022-08-04T08:45:23.721Z,5.56
2022-08-04T08:48:12.805Z,5.22
2022-08-04T08:51:07.070Z,5.37
2022-08-04T08:53:49.761Z,5.45
2022-08-04T08:56:31.527Z,5.37
2022-08-04T08:59:15.884Z,5.16
2022-08-04T09:02:02.259Z,4.70
2022-08-04T09:05:08.957Z,5.21
2022-08-04T09:07:52.543Z,4.36
2022-08-04T09:10:23.184Z,4.47
2022-08-04T09:12:55.216Z,4.01
2022-08-04T09:15:30.214Z,4.81
2022-08-04T09:18:01.273Z,5.66
2022-08-04T09:20:33.002Z,5.56
2022-08-04T09:23:18.705Z,5.23
2022-08-04T09:25:52.420Z,5.50
2022-08-04T09:28:51.764Z,5.67
2022-08-04T09:31:14.844Z,5.16
2022-08-04T09:33:49.054Z,4.33
2022-08-04T09:36:27.840Z,4.69
2022-08-04T09:39:19.868Z,4.90
2022-08-04T09:41:56.125Z,5.47
2022-08-04T09:44:52.268Z,5.88
2022-08-04T09:47:39.631Z,5.69
2022-08-04T09:50:28.298Z,6.03
2022-08-04T09:53:00.575Z,5.50
2022-08-04T09:55:53.918Z,4.43
2022-08-04T09:58:29.666Z,3.97
2022-08-04T10:01:02.689Z,4.34
2022-08-04T10:03:34.323Z,4.35
2022-08-04T10:06:11.765Z,3.81
2022-08-04T10:08:57.148Z,4.43
2022-08-04T10:11:56.038Z,3.87
2022-08-04T10:14:38.327Z,3.30
2022-08-04T10:17:17.438Z,2.92
2022-08-04T10:19:47.346Z,4.02
2022-08-04T10:22:29.362Z,3.78
2022-08-04T10:25:05.245Z,4.47
2022-08-04T10:27:57.631Z,4.16
2022-08-04T10:30:26.698Z,4.24
2022-08-04T10:33:07.789Z,4.17
2022-08-04T10:35:39.849Z,4.06
2022-08-04T10:38:13.513Z,3.76
2022-08-04T10:40:45.571Z,2.92
2022-08-04T10:43:24.060Z,3.11
2022-08-04T10:45:58.381Z,3.38
2022-08-04T10:48:37.773Z,3.34
2022-08-04T10:51:16.843Z,3.04
2022-08-04T10:53:45.821Z,2.63
2022-08-04T10:56:32.028Z,2.62
2022-08-04T10:59:05.450Z,3.31
2022-08-04T11:02:01.132Z,3.99
2022-08-04T11:04:29.255Z,3.86
2022-08-04T11:06:57.744Z,3.56
2022-08-04T11:09:25.959Z,3.78
2022-08-04T11:12:00.429Z,3.33
2022-08-04T11:14:35.234Z,2.78
2022-08-04T11:17:07.990Z,1.91
2022-08-04T11:19:44.746Z,2.21
2022-08-04T11:22:25.271Z,3.11
2022-08-04T11:24:55.696Z,3.14
2022-08-04T11:27:29.693Z,2.71
2022-08-04T11:30:04.994Z,3.74
2022-08-04T11:32:38.995Z,4.27
2022-08-04T11:35:13.257Z,4.48
2022-08-04T11:37:50.278Z,5.51
2022-08-04T11:40:25.801Z,7.08
2022-08-04T11:42:57.094Z,7.54
2022-08-04T11:45:33.171Z,8.13
2022-08-04T11:48:07.828Z,8.53
2022-08-04T11:50:39.194Z,8.95
2022-08-04T11:53:08.320Z,9.37
2022-08-04T11:56:09.475Z,9.67
2022-08-04T11:58:25.985Z,9.83
2022-08-04T12:01:05.542Z,9.43
2022-08-04T12:03:38.155Z,9.55
2022-08-04T12:06:15.333Z,9.74
2022-08-04T12:08:55.547Z,9.89
2022-08-04T12:11:31.040Z,10.19
2022-08-04T12:14:07.707Z,10.17
2022-08-04T12:16:44.024Z,10.17
2022-08-04T12:19:18.954Z,10.01
2022-08-04T12:21:55.677Z,10.28
2022-08-04T12:24:29.391Z,10.61
2022-08-04T12:26:59.750Z,10.62
2022-08-04T12:29:30.549Z,10.72
2022-08-04T12:32:04.348Z,10.25
2022-08-04T12:34:35.846Z,9.94
2022-08-04T12:37:08.189Z,10.14
2022-08-04T12:40:27.277Z,10.27
2022-08-04T12:42:33.320Z,10.64
2022-08-04T12:45:06.083Z,10.65
2022-08-04T12:47:37.025Z,10.27
2022-08-04T12:50:07.151Z,10.73
2022-08-04T12:55:34.756Z,10.67
2022-08-04T12:58:03.583Z,10.74
2022-08-04T13:00:43.992Z,10.87
2022-08-04T13:03:16.370Z,10.49
2022-08-04T13:05:45.132Z,10.78
2022-08-04T13:08:15.538Z,11.80
2022-08-04T13:10:46.453Z,11.29
2022-08-04T13:13:18.151Z,11.07
2022-08-04T13:15:57.766Z,10.59
2022-08-04T13:18:32.507Z,11.01
2022-08-04T13:21:21.035Z,10.94
2022-08-04T13:24:19.236Z,11.35
2022-08-04T13:26:54.311Z,11.42
2022-08-04T13:30:00.304Z,11.52
2022-08-04T13:32:17.382Z,10.80
2022-08-04T13:34:48.824Z,11.12
2022-08-04T13:37:20.605Z,10.86
2022-08-04T13:39:55.864Z,11.28
2022-08-04T13:42:25.965Z,10.83
2022-08-04T13:44:56.476Z,10.77
2022-08-04T13:47:28.494Z,11.52
2022-08-04T13:50:20.434Z,11.45
2022-08-04T13:52:53.141Z,10.96
2022-08-04T13:55:23.696Z,11.14
2022-08-04T13:57:56.403Z,10.75
2022-08-04T14:00:29.228Z,10.90
2022-08-04T14:03:02.692Z,10.88
2022-08-04T14:05:58.946Z,10.70
2022-08-04T14:08:26.618Z,10.34
2022-08-04T14:10:58.818Z,10.53
2022-08-04T14:13:41.592Z,10.30
2022-08-04T14:16:18.302Z,10.13
2022-08-04T14:18:46.843Z,10.85
2022-08-04T14:21:17.837Z,10.58
2022-08-04T14:23:48.039Z,10.04
2022-08-04T14:26:19.009Z,10.74
2022-08-04T14:29:25.901Z,11.16
2022-08-04T14:31:35.927Z,11.18
2022-08-04T14:34:27.396Z,11.00
2022-08-04T14:37:17.570Z,10.75
2022-08-04T14:40:18.402Z,10.89
2022-08-04T14:42:41.821Z,10.93
2022-08-04T14:45:11.153Z,11.06
2022-08-04T14:47:51.734Z,10.70
2022-08-04T14:50:20.971Z,11.01
2022-08-04T14:52:50.688Z,10.83
2022-08-04T14:55:20.966Z,10.98
2022-08-04T14:58:33.867Z,10.77
2022-08-04T15:00:38.651Z,10.51
2022-08-04T15:03:09.124Z,10.57
2022-08-04T15:05:59.778Z,10.83
2022-08-04T15:08:30.999Z,11.08
2022-08-04T15:11:02.574Z,11.37
2022-08-04T15:13:31.362Z,11.32
2022-08-04T15:16:06.371Z,11.13
2022-08-04T15:18:39.724Z,10.72
2022-08-04T15:21:08.605Z,11.01
2022-08-04T15:23:40.061Z,10.94
2022-08-04T15:26:11.784Z,10.57
2022-08-04T15:28:41.699Z,10.85
2022-08-04T15:32:03.935Z,10.81
2022-08-04T15:33:59.493Z,11.16
2022-08-04T15:36:36.461Z,11.30
2022-08-04T15:39:11.548Z,11.44
2022-08-04T15:41:55.364Z,11.48
2022-08-04T15:45:01.193Z,11.96
2022-08-04T15:47:30.682Z,11.72
2022-08-04T15:50:08.377Z,11.68
2022-08-04T15:53:10.761Z,10.91
2022-08-04T15:55:44.129Z,11.39
2022-08-04T15:58:13.532Z,12.13
2022-08-04T16:01:16.902Z,11.52
2022-08-04T16:03:54.195Z,11.94
2022-08-04T16:06:45.496Z,11.76
2022-08-04T16:09:45.531Z,11.75
2022-08-04T16:12:54.389Z,11.88
2022-08-04T16:15:41.401Z,12.61
2022-08-04T16:18:15.144Z,13.13
2022-08-04T16:20:56.110Z,12.77
2022-08-04T16:23:56.017Z,12.55
2022-08-04T16:26:46.365Z,12.08
2022-08-04T16:29:32.023Z,12.60
2022-08-04T16:32:16.368Z,12.71
2022-08-04T16:34:54.587Z,12.94
2022-08-04T16:37:26.299Z,13.08
2022-08-04T16:40:33.722Z,12.87
2022-08-04T16:43:06.802Z,13.15
2022-08-04T16:45:44.332Z,12.78
2022-08-04T16:48:14.587Z,13.27
2022-08-04T16:50:52.089Z,12.93
2022-08-04T16:53:52.484Z,13.02
2022-08-04T16:56:10.991Z,13.18
2022-08-04T16:58:50.059Z,13.59
2022-08-04T17:01:33.257Z,13.34
2022-08-04T17:04:08.045Z,13.16
2022-08-04T17:06:38.341Z,13.32
2022-08-04T17:09:08.354Z,13.67
2022-08-04T17:11:36.507Z,13.70
2022-08-04T17:14:06.110Z,13.71
2022-08-04T17:16:36.434Z,13.18
2022-08-04T17:19:07.022Z,13.71
2022-08-04T17:21:49.570Z,13.80
2022-08-04T17:24:18.238Z,14.14
2022-08-04T17:26:53.919Z,13.84
2022-08-04T17:29:44.490Z,13.82
2022-08-04T17:32:18.829Z,13.81
2022-08-04T17:34:52.054Z,14.14
2022-08-04T17:37:41.007Z,14.16
2022-08-04T17:40:13.248Z,14.42
2022-08-04T17:42:42.303Z,15.10
2022-08-04T17:48:03.704Z,14.61
2022-08-04T17:50:36.052Z,14.86
2022-08-04T17:53:12.238Z,14.34
2022-08-04T17:55:42.685Z,15.12
2022-08-04T17:58:21.465Z,14.99
2022-08-04T18:01:23.540Z,14.86
2022-08-04T18:03:54.561Z,15.35
2022-08-04T18:06:25.524Z,15.23
2022-08-04T18:08:57.617Z,14.68
2022-08-04T18:11:29.750Z,15.25
2022-08-04T18:14:09.938Z,15.15
2022-08-04T18:16:44.250Z,14.92
2022-08-04T18:19:13.659Z,15.48
2022-08-04T18:21:46.881Z,15.64
2022-08-04T18:24:35.788Z,15.41
2022-08-04T18:27:17.969Z,15.95
2022-08-04T18:30:15.412Z,15.55
2022-08-04T18:32:35.751Z,15.84
2022-08-04T18:35:07.452Z,15.78
2022-08-04T18:38:05.947Z,16.13
2022-08-04T18:43:14.584Z,16.14
2022-08-04T18:45:51.215Z,16.42
2022-08-04T18:48:19.901Z,16.37
2022-08-04T18:51:09.646Z,16.58
2022-08-04T18:53:38.218Z,16.46
2022-08-04T18:56:20.083Z,17.03
2022-08-04T18:58:59.971Z,17.15
2022-08-04T19:02:13.455Z,17.09
2022-08-04T19:04:33.455Z,17.02
2022-08-04T19:07:28.739Z,16.75
2022-08-04T19:09:58.099Z,16.51
2022-08-04T19:12:29.298Z,17.10
2022-08-04T19:15:08.689Z,17.31
2022-08-04T19:17:53.417Z,17.57
2022-08-04T19:20:26.685Z,17.31
2022-08-04T19:24:29.162Z,17.78
2022-08-04T19:25:59.571Z,17.13
2022-08-04T19:28:35.208Z,17.71
2022-08-04T19:31:05.021Z,17.95
2022-08-04T19:33:58.067Z,18.37
2022-08-04T19:36:27.845Z,17.73
2022-08-04T19:38:58.132Z,17.58
2022-08-04T19:41:29.574Z,18.07
2022-08-04T19:44:02.251Z,17.88
2022-08-04T19:46:31.090Z,17.85
2022-08-04T19:49:00.865Z,18.05
2022-08-04T19:51:30.484Z,17.84
2022-08-04T19:54:04.128Z,18.02
2022-08-04T19:56:40.532Z,18.11
2022-08-04T19:59:10.408Z,18.04
2022-08-04T20:01:44.092Z,18.65
2022-08-04T20:04:14.627Z,18.44
2022-08-04T20:06:43.664Z,18.61
2022-08-04T20:09:26.351Z,18.73
2022-08-04T20:11:58.242Z,18.32
2022-08-04T20:14:32.654Z,18.79
2022-08-04T20:21:11.259Z,19.02
2022-08-04T20:23:49.890Z,19.10
2022-08-04T20:26:18.427Z,19.35
2022-08-04T20:28:51.789Z,18.99
2022-08-04T20:31:20.590Z,19.55
2022-08-04T20:33:53.744Z,19.39
2022-08-04T20:36:23.619Z,19.73
2022-08-04T20:38:53.051Z,20.12
2022-08-04T20:41:21.550Z,19.54
2022-08-04T20:43:51.257Z,19.79
2022-08-04T20:46:28.469Z,19.90
2022-08-04T20:48:58.047Z,20.27
2022-08-04T20:51:33.329Z,20.30
2022-08-04T20:54:02.631Z,19.79
2022-08-04T20:56:31.748Z,20.07
2022-08-04T20:59:01.376Z,20.04
2022-08-04T21:01:36.663Z,20.60
2022-08-04T21:04:28.233Z,20.90
2022-08-04T21:06:58.068Z,20.34
2022-08-04T21:09:37.814Z,20.08
2022-08-04T21:12:17.030Z,20.22
2022-08-04T21:15:01.421Z,19.84
2022-08-04T21:17:59.345Z,20.35
2022-08-04T21:20:29.654Z,20.12
2022-08-04T21:23:02.020Z,20.45
2022-08-04T21:25:30.728Z,20.43
2022-08-04T21:30:53.932Z,20.32
2022-08-04T21:33:23.094Z,20.29
2022-08-04T21:35:54.255Z,20.52
2022-08-04T21:38:25.163Z,19.39
2022-08-04T21:40:57.821Z,20.29
2022-08-04T21:43:28.670Z,20.43
2022-08-04T21:46:04.076Z,20.49
2022-08-04T21:48:33.570Z,20.83
2022-08-04T21:54:03.736Z,21.12
2022-08-04T21:56:32.036Z,21.40
2022-08-04T21:59:00.370Z,21.16
2022-08-04T22:01:50.351Z,21.26
2022-08-04T22:04:18.833Z,21.24
2022-08-04T22:06:47.605Z,21.56
2022-08-04T22:09:21.981Z,21.56
2022-08-04T22:11:51.959Z,21.62
2022-08-04T22:14:29.552Z,21.54
2022-08-04T22:17:05.185Z,21.76
2022-08-04T22:19:50.771Z,22.35
2022-08-04T22:22:26.125Z,22.40
2022-08-04T22:24:58.715Z,21.95
2022-08-04T22:28:02.593Z,21.95
2022-08-04T22:30:33.170Z,21.71
2022-08-04T22:33:08.822Z,21.59
2022-08-04T22:35:48.859Z,22.19
2022-08-04T22:38:24.232Z,22.71
2022-08-04T22:41:02.047Z,22.34
2022-08-04T22:43:32.479Z,22.82
2022-08-04T22:46:03.836Z,22.60
2022-08-04T22:48:34.259Z,22.06
2022-08-04T22:51:03.146Z,22.28
2022-08-04T22:53:32.260Z,22.63
2022-08-04T22:56:10.056Z,22.63
2022-08-04T22:58:45.357Z,22.01
2022-08-04T23:01:15.384Z,22.49
2022-08-04T23:03:55.215Z,22.05
2022-08-04T23:06:25.595Z,22.49
2022-08-04T23:08:57.371Z,22.46
2022-08-04T23:11:34.629Z,22.79
2022-08-04T23:14:04.527Z,22.64
2022-08-04T23:16:33.081Z,22.59
2022-08-04T23:19:15.171Z,22.32
2022-08-04T23:21:47.958Z,22.54
2022-08-04T23:24:30.233Z,22.36
2022-08-04T23:26:58.945Z,22.62
2022-08-04T23:29:27.638Z,22.46
2022-08-04T23:32:15.772Z,22.98
2022-08-04T23:34:49.973Z,22.40
2022-08-04T23:37:18.360Z,22.42
2022-08-04T23:40:14.702Z,22.80
2022-08-04T23:42:35.138Z,22.59
2022-08-04T23:45:03.578Z,22.56
2022-08-04T23:48:14.619Z,22.70
2022-08-04T23:50:21.627Z,22.24
2022-08-04T23:52:49.778Z,22.63
2022-08-04T23:55:21.393Z,22.79
2022-08-04T23:58:06.099Z,22.61
